sensor_id;sensor_type;location;lat;lon;timestamp;P1;durP1;ratioP1;P2;durP2;ratioP2
9948;SDS011;5013;51.840;8.276;2024-03-29T00:00:52;2.80;;;1.30;;
9948;SDS011;5013;51.840;8.276;2024-03-29T00:03:18;4.07;;;1.40;;
9948;SDS011;5013;51.840;8.276;2024-03-29T00:05:44;4.20;;;1.70;;
9948;SDS011;5013;51.840;8.276;2024-03-29T00:08:10;1.77;;;1.30;;
9948;SDS011;5013;51.840;8.276;2024-03-29T00:10:36;10.90;;;2.20;;
9948;SDS011;5013;51.840;8.276;2024-03-29T00:13:01;4.80;;;1.80;;
9948;SDS011;5013;51.840;8.276;2024-03-29T00:15:27;2.73;;;1.43;;
9948;SDS011;5013;51.840;8.276;2024-03-29T00:17:52;2.67;;;1.20;;
9948;SDS011;5013;51.840;8.276;2024-03-29T00:20:18;3.60;;;1.30;;
9948;SDS011;5013;51.840;8.276;2024-03-29T00:22:46;1.57;;;1.37;;
9948;SDS011;5013;51.840;8.276;2024-03-29T00:25:12;3.90;;;1.60;;
9948;SDS011;5013;51.840;8.276;2024-03-29T00:27:37;3.70;;;1.47;;
9948;SDS011;5013;51.840;8.276;2024-03-29T00:30:03;5.43;;;1.70;;
9948;SDS011;5013;51.840;8.276;2024-03-29T00:32:29;2.17;;;1.30;;
9948;SDS011;5013;51.840;8.276;2024-03-29T00:34:55;2.60;;;1.30;;
9948;SDS011;5013;51.840;8.276;2024-03-29T00:37:23;1.30;;;1.20;;
9948;SDS011;5013;51.840;8.276;2024-03-29T00:39:49;5.10;;;1.70;;
9948;SDS011;5013;51.840;8.276;2024-03-29T00:42:14;6.53;;;1.83;;
9948;SDS011;5013;51.840;8.276;2024-03-29T00:44:41;8.00;;;1.70;;
9948;SDS011;5013;51.840;8.276;2024-03-29T00:47:08;4.27;;;1.70;;
9948;SDS011;5013;51.840;8.276;2024-03-29T00:49:34;3.43;;;1.23;;
9948;SDS011;5013;51.840;8.276;2024-03-29T00:52:00;3.83;;;1.40;;
9948;SDS011;5013;51.840;8.276;2024-03-29T00:54:26;1.93;;;1.30;;
9948;SDS011;5013;51.840;8.276;2024-03-29T00:56:52;6.97;;;1.40;;
9948;SDS011;5013;51.840;8.276;2024-03-29T00:59:18;8.33;;;1.40;;
9948;SDS011;5013;51.840;8.276;2024-03-29T01:01:45;1.60;;;1.20;;
9948;SDS011;5013;51.840;8.276;2024-03-29T01:04:11;3.90;;;1.30;;
9948;SDS011;5013;51.840;8.276;2024-03-29T01:06:37;3.97;;;1.30;;
9948;SDS011;5013;51.840;8.276;2024-03-29T01:09:03;2.33;;;1.30;;
9948;SDS011;5013;51.840;8.276;2024-03-29T01:11:30;1.90;;;1.10;;
9948;SDS011;5013;51.840;8.276;2024-03-29T01:13:56;3.00;;;1.23;;
9948;SDS011;5013;51.840;8.276;2024-03-29T01:16:22;2.17;;;1.20;;
9948;SDS011;5013;51.840;8.276;2024-03-29T01:18:48;4.63;;;1.37;;
9948;SDS011;5013;51.840;8.276;2024-03-29T01:21:14;3.40;;;1.27;;
9948;SDS011;5013;51.840;8.276;2024-03-29T01:23:43;2.97;;;1.03;;
9948;SDS011;5013;51.840;8.276;2024-03-29T01:26:09;2.97;;;1.23;;
9948;SDS011;5013;51.840;8.276;2024-03-29T01:28:37;2.17;;;1.10;;
9948;SDS011;5013;51.840;8.276;2024-03-29T01:31:04;2.53;;;1.47;;
9948;SDS011;5013;51.840;8.276;2024-03-29T01:33:30;1.57;;;1.20;;
9948;SDS011;5013;51.840;8.276;2024-03-29T01:36:02;1.80;;;1.63;;
9948;SDS011;5013;51.840;8.276;2024-03-29T01:38:31;4.50;;;1.40;;
9948;SDS011;5013;51.840;8.276;2024-03-29T01:40:57;4.43;;;1.20;;
9948;SDS011;5013;51.840;8.276;2024-03-29T01:43:22;3.73;;;1.20;;
9948;SDS011;5013;51.840;8.276;2024-03-29T01:45:49;2.93;;;1.20;;
9948;SDS011;5013;51.840;8.276;2024-03-29T01:48:18;3.50;;;1.17;;
9948;SDS011;5013;51.840;8.276;2024-03-29T01:50:45;4.07;;;1.20;;
9948;SDS011;5013;51.840;8.276;2024-03-29T01:53:12;10.23;;;1.57;;
9948;SDS011;5013;51.840;8.276;2024-03-29T01:55:39;3.60;;;1.40;;
9948;SDS011;5013;51.840;8.276;2024-03-29T01:58:05;2.07;;;1.30;;
9948;SDS011;5013;51.840;8.276;2024-03-29T02:00:36;1.47;;;1.10;;
9948;SDS011;5013;51.840;8.276;2024-03-29T02:03:07;6.80;;;1.50;;
9948;SDS011;5013;51.840;8.276;2024-03-29T02:05:39;4.17;;;1.40;;
9948;SDS011;5013;51.840;8.276;2024-03-29T02:08:06;2.80;;;1.10;;
9948;SDS011;5013;51.840;8.276;2024-03-29T02:10:33;3.77;;;1.30;;
9948;SDS011;5013;51.840;8.276;2024-03-29T02:12:59;5.77;;;1.53;;
9948;SDS011;5013;51.840;8.276;2024-03-29T02:15:25;3.80;;;1.40;;
9948;SDS011;5013;51.840;8.276;2024-03-29T02:17:52;1.87;;;1.40;;
9948;SDS011;5013;51.840;8.276;2024-03-29T02:20:18;4.50;;;1.57;;
9948;SDS011;5013;51.840;8.276;2024-03-29T02:22:53;1.93;;;1.40;;
9948;SDS011;5013;51.840;8.276;2024-03-29T02:25:20;6.27;;;1.47;;
9948;SDS011;5013;51.840;8.276;2024-03-29T02:27:46;3.63;;;1.50;;
9948;SDS011;5013;51.840;8.276;2024-03-29T02:30:16;5.83;;;1.40;;
9948;SDS011;5013;51.840;8.276;2024-03-29T02:32:42;1.70;;;1.37;;
9948;SDS011;5013;51.840;8.276;2024-03-29T02:35:08;3.10;;;1.30;;
9948;SDS011;5013;51.840;8.276;2024-03-29T02:37:36;3.80;;;1.20;;
9948;SDS011;5013;51.840;8.276;2024-03-29T02:40:02;4.90;;;1.50;;
9948;SDS011;5013;51.840;8.276;2024-03-29T02:42:29;3.53;;;1.57;;
9948;SDS011;5013;51.840;8.276;2024-03-29T02:44:54;2.60;;;1.30;;
9948;SDS011;5013;51.840;8.276;2024-03-29T02:47:21;4.33;;;1.30;;
9948;SDS011;5013;51.840;8.276;2024-03-29T02:49:47;1.30;;;0.93;;
9948;SDS011;5013;51.840;8.276;2024-03-29T02:52:12;3.20;;;1.10;;
9948;SDS011;5013;51.840;8.276;2024-03-29T02:54:38;4.50;;;1.40;;
9948;SDS011;5013;51.840;8.276;2024-03-29T02:57:04;5.17;;;1.40;;
9948;SDS011;5013;51.840;8.276;2024-03-29T02:59:30;3.37;;;1.20;;
9948;SDS011;5013;51.840;8.276;2024-03-29T03:01:55;4.00;;;1.20;;
9948;SDS011;5013;51.840;8.276;2024-03-29T03:04:21;2.83;;;1.30;;
9948;SDS011;5013;51.840;8.276;2024-03-29T03:06:47;5.40;;;1.50;;
9948;SDS011;5013;51.840;8.276;2024-03-29T03:09:12;4.27;;;1.30;;
9948;SDS011;5013;51.840;8.276;2024-03-29T03:11:56;3.10;;;1.23;;
9948;SDS011;5013;51.840;8.276;2024-03-29T03:14:22;2.23;;;1.03;;
9948;SDS011;5013;51.840;8.276;2024-03-29T03:16:47;4.70;;;1.30;;
9948;SDS011;5013;51.840;8.276;2024-03-29T03:19:13;2.17;;;1.50;;
9948;SDS011;5013;51.840;8.276;2024-03-29T03:21:39;3.80;;;1.50;;
9948;SDS011;5013;51.840;8.276;2024-03-29T03:24:04;2.87;;;1.60;;
9948;SDS011;5013;51.840;8.276;2024-03-29T03:26:30;2.13;;;1.27;;
9948;SDS011;5013;51.840;8.276;2024-03-29T03:28:56;3.27;;;1.40;;
9948;SDS011;5013;51.840;8.276;2024-03-29T03:31:21;2.43;;;1.47;;
9948;SDS011;5013;51.840;8.276;2024-03-29T03:33:47;3.60;;;1.90;;
9948;SDS011;5013;51.840;8.276;2024-03-29T03:36:13;4.13;;;2.07;;
9948;SDS011;5013;51.840;8.276;2024-03-29T03:38:39;4.40;;;1.60;;
9948;SDS011;5013;51.840;8.276;2024-03-29T03:41:06;3.60;;;1.67;;
9948;SDS011;5013;51.840;8.276;2024-03-29T03:43:32;3.27;;;1.70;;
9948;SDS011;5013;51.840;8.276;2024-03-29T03:46:01;4.77;;;2.00;;
9948;SDS011;5013;51.840;8.276;2024-03-29T03:48:27;4.27;;;1.80;;
9948;SDS011;5013;51.840;8.276;2024-03-29T03:50:54;3.40;;;1.83;;
9948;SDS011;5013;51.840;8.276;2024-03-29T03:53:20;4.00;;;1.80;;
9948;SDS011;5013;51.840;8.276;2024-03-29T03:55:46;2.20;;;1.80;;
9948;SDS011;5013;51.840;8.276;2024-03-29T03:58:11;7.27;;;3.07;;
9948;SDS011;5013;51.840;8.276;2024-03-29T04:00:37;2.83;;;2.13;;
9948;SDS011;5013;51.840;8.276;2024-03-29T04:03:03;4.00;;;1.57;;
9948;SDS011;5013;51.840;8.276;2024-03-29T04:05:29;1.70;;;1.30;;
9948;SDS011;5013;51.840;8.276;2024-03-29T04:07:56;4.50;;;1.67;;
9948;SDS011;5013;51.840;8.276;2024-03-29T04:10:22;4.50;;;1.40;;
9948;SDS011;5013;51.840;8.276;2024-03-29T04:12:49;4.47;;;2.07;;
9948;SDS011;5013;51.840;8.276;2024-03-29T04:15:15;2.17;;;1.30;;
9948;SDS011;5013;51.840;8.276;2024-03-29T04:17:41;2.23;;;1.70;;
9948;SDS011;5013;51.840;8.276;2024-03-29T04:20:07;5.00;;;1.33;;
9948;SDS011;5013;51.840;8.276;2024-03-29T04:22:33;4.93;;;1.50;;
9948;SDS011;5013;51.840;8.276;2024-03-29T04:24:59;3.47;;;1.67;;
9948;SDS011;5013;51.840;8.276;2024-03-29T04:27:25;3.97;;;1.40;;
9948;SDS011;5013;51.840;8.276;2024-03-29T04:29:51;5.20;;;1.30;;
9948;SDS011;5013;51.840;8.276;2024-03-29T04:32:18;4.60;;;1.60;;
9948;SDS011;5013;51.840;8.276;2024-03-29T04:34:47;6.47;;;1.70;;
9948;SDS011;5013;51.840;8.276;2024-03-29T04:37:13;5.97;;;1.67;;
9948;SDS011;5013;51.840;8.276;2024-03-29T04:39:40;3.73;;;1.43;;
9948;SDS011;5013;51.840;8.276;2024-03-29T04:42:07;2.90;;;1.60;;
9948;SDS011;5013;51.840;8.276;2024-03-29T04:44:33;4.40;;;1.37;;
9948;SDS011;5013;51.840;8.276;2024-03-29T04:46:58;3.50;;;1.33;;
9948;SDS011;5013;51.840;8.276;2024-03-29T04:49:24;8.87;;;1.90;;
9948;SDS011;5013;51.840;8.276;2024-03-29T04:51:55;6.00;;;1.50;;
9948;SDS011;5013;51.840;8.276;2024-03-29T04:54:22;4.07;;;1.70;;
9948;SDS011;5013;51.840;8.276;2024-03-29T04:56:48;4.13;;;1.77;;
9948;SDS011;5013;51.840;8.276;2024-03-29T05:02:11;4.63;;;1.40;;
9948;SDS011;5013;51.840;8.276;2024-03-29T05:04:36;3.23;;;1.40;;
9948;SDS011;5013;51.840;8.276;2024-03-29T05:07:02;2.70;;;1.37;;
9948;SDS011;5013;51.840;8.276;2024-03-29T05:09:28;4.93;;;1.50;;
9948;SDS011;5013;51.840;8.276;2024-03-29T05:11:53;3.07;;;1.43;;
9948;SDS011;5013;51.840;8.276;2024-03-29T05:14:19;3.43;;;1.60;;
9948;SDS011;5013;51.840;8.276;2024-03-29T05:16:47;9.50;;;1.57;;
9948;SDS011;5013;51.840;8.276;2024-03-29T05:19:13;4.57;;;1.40;;
9948;SDS011;5013;51.840;8.276;2024-03-29T05:21:41;4.83;;;1.90;;
9948;SDS011;5013;51.840;8.276;2024-03-29T05:24:07;3.50;;;1.30;;
9948;SDS011;5013;51.840;8.276;2024-03-29T05:26:33;6.23;;;1.53;;
9948;SDS011;5013;51.840;8.276;2024-03-29T05:28:59;5.40;;;1.43;;
9948;SDS011;5013;51.840;8.276;2024-03-29T05:31:25;2.87;;;1.30;;
9948;SDS011;5013;51.840;8.276;2024-03-29T05:33:51;3.43;;;1.70;;
9948;SDS011;5013;51.840;8.276;2024-03-29T05:36:17;4.37;;;1.63;;
9948;SDS011;5013;51.840;8.276;2024-03-29T05:38:43;4.20;;;1.40;;
9948;SDS011;5013;51.840;8.276;2024-03-29T05:41:09;4.37;;;1.40;;
9948;SDS011;5013;51.840;8.276;2024-03-29T05:43:35;7.53;;;1.40;;
9948;SDS011;5013;51.840;8.276;2024-03-29T05:46:01;5.97;;;1.30;;
9948;SDS011;5013;51.840;8.276;2024-03-29T05:48:27;3.47;;;1.40;;
9948;SDS011;5013;51.840;8.276;2024-03-29T05:50:53;10.07;;;1.90;;
9948;SDS011;5013;51.840;8.276;2024-03-29T05:53:19;2.07;;;1.40;;
9948;SDS011;5013;51.840;8.276;2024-03-29T05:55:44;4.40;;;1.97;;
9948;SDS011;5013;51.840;8.276;2024-03-29T05:58:10;6.40;;;1.37;;
9948;SDS011;5013;51.840;8.276;2024-03-29T06:00:36;3.20;;;1.30;;
9948;SDS011;5013;51.840;8.276;2024-03-29T06:03:01;7.70;;;1.73;;
9948;SDS011;5013;51.840;8.276;2024-03-29T06:05:28;3.93;;;1.30;;
9948;SDS011;5013;51.840;8.276;2024-03-29T06:07:53;4.47;;;1.43;;
9948;SDS011;5013;51.840;8.276;2024-03-29T06:10:19;3.87;;;1.50;;
9948;SDS011;5013;51.840;8.276;2024-03-29T06:12:45;5.50;;;1.47;;
9948;SDS011;5013;51.840;8.276;2024-03-29T06:15:10;6.87;;;2.13;;
9948;SDS011;5013;51.840;8.276;2024-03-29T06:17:55;3.73;;;1.47;;
9948;SDS011;5013;51.840;8.276;2024-03-29T06:20:20;7.47;;;1.97;;
9948;SDS011;5013;51.840;8.276;2024-03-29T06:22:46;8.07;;;2.00;;
9948;SDS011;5013;51.840;8.276;2024-03-29T06:25:12;6.97;;;1.80;;
9948;SDS011;5013;51.840;8.276;2024-03-29T06:30:28;7.60;;;2.23;;
9948;SDS011;5013;51.840;8.276;2024-03-29T06:32:54;6.17;;;1.73;;
9948;SDS011;5013;51.840;8.276;2024-03-29T06:35:19;5.20;;;1.80;;
9948;SDS011;5013;51.840;8.276;2024-03-29T06:37:47;10.13;;;1.83;;
9948;SDS011;5013;51.840;8.276;2024-03-29T06:40:12;5.30;;;2.03;;
9948;SDS011;5013;51.840;8.276;2024-03-29T06:42:38;5.70;;;1.77;;
9948;SDS011;5013;51.840;8.276;2024-03-29T06:45:04;6.97;;;1.80;;
9948;SDS011;5013;51.840;8.276;2024-03-29T06:47:30;2.97;;;1.70;;
9948;SDS011;5013;51.840;8.276;2024-03-29T06:49:56;5.20;;;1.80;;
9948;SDS011;5013;51.840;8.276;2024-03-29T06:52:22;4.00;;;2.23;;
9948;SDS011;5013;51.840;8.276;2024-03-29T06:54:47;8.13;;;2.30;;
9948;SDS011;5013;51.840;8.276;2024-03-29T06:57:13;6.97;;;2.27;;
9948;SDS011;5013;51.840;8.276;2024-03-29T06:59:42;5.97;;;2.07;;
9948;SDS011;5013;51.840;8.276;2024-03-29T07:02:08;3.63;;;1.90;;
9948;SDS011;5013;51.840;8.276;2024-03-29T07:04:35;3.83;;;1.77;;
9948;SDS011;5013;51.840;8.276;2024-03-29T07:07:00;7.20;;;2.13;;
9948;SDS011;5013;51.840;8.276;2024-03-29T07:09:26;6.37;;;1.97;;
9948;SDS011;5013;51.840;8.276;2024-03-29T07:11:52;4.63;;;1.90;;
9948;SDS011;5013;51.840;8.276;2024-03-29T07:14:18;3.53;;;2.10;;
9948;SDS011;5013;51.840;8.276;2024-03-29T07:16:44;3.97;;;1.90;;
9948;SDS011;5013;51.840;8.276;2024-03-29T07:19:11;5.50;;;2.03;;
9948;SDS011;5013;51.840;8.276;2024-03-29T07:21:44;7.53;;;1.97;;
9948;SDS011;5013;51.840;8.276;2024-03-29T07:24:10;3.73;;;2.30;;
9948;SDS011;5013;51.840;8.276;2024-03-29T07:26:36;3.70;;;1.80;;
9948;SDS011;5013;51.840;8.276;2024-03-29T07:29:02;3.33;;;1.77;;
9948;SDS011;5013;51.840;8.276;2024-03-29T07:31:30;4.60;;;1.93;;
9948;SDS011;5013;51.840;8.276;2024-03-29T07:33:56;3.90;;;1.63;;
9948;SDS011;5013;51.840;8.276;2024-03-29T07:36:21;7.47;;;2.10;;
9948;SDS011;5013;51.840;8.276;2024-03-29T07:38:49;3.47;;;2.03;;
9948;SDS011;5013;51.840;8.276;2024-03-29T07:41:15;5.13;;;2.33;;
9948;SDS011;5013;51.840;8.276;2024-03-29T07:43:50;5.03;;;2.33;;
9948;SDS011;5013;51.840;8.276;2024-03-29T07:46:21;3.93;;;2.20;;
9948;SDS011;5013;51.840;8.276;2024-03-29T07:48:55;5.17;;;2.20;;
9948;SDS011;5013;51.840;8.276;2024-03-29T07:51:21;4.00;;;2.20;;
9948;SDS011;5013;51.840;8.276;2024-03-29T07:53:47;5.47;;;1.90;;
9948;SDS011;5013;51.840;8.276;2024-03-29T07:56:12;5.63;;;1.83;;
9948;SDS011;5013;51.840;8.276;2024-03-29T07:58:38;9.37;;;2.30;;
9948;SDS011;5013;51.840;8.276;2024-03-29T08:01:03;4.13;;;1.83;;
9948;SDS011;5013;51.840;8.276;2024-03-29T08:03:29;4.63;;;2.00;;
9948;SDS011;5013;51.840;8.276;2024-03-29T08:06:01;4.70;;;2.20;;
9948;SDS011;5013;51.840;8.276;2024-03-29T08:08:31;2.33;;;2.13;;
9948;SDS011;5013;51.840;8.276;2024-03-29T08:10:57;4.73;;;2.00;;
9948;SDS011;5013;51.840;8.276;2024-03-29T08:13:23;3.63;;;1.50;;
9948;SDS011;5013;51.840;8.276;2024-03-29T08:15:56;6.73;;;2.30;;
9948;SDS011;5013;51.840;8.276;2024-03-29T08:18:23;4.87;;;1.70;;
9948;SDS011;5013;51.840;8.276;2024-03-29T08:20:48;6.93;;;2.07;;
9948;SDS011;5013;51.840;8.276;2024-03-29T08:23:14;1.90;;;1.67;;
9948;SDS011;5013;51.840;8.276;2024-03-29T08:25:40;3.83;;;1.50;;
9948;SDS011;5013;51.840;8.276;2024-03-29T08:28:05;1.83;;;1.60;;
9948;SDS011;5013;51.840;8.276;2024-03-29T08:30:31;4.43;;;1.83;;
9948;SDS011;5013;51.840;8.276;2024-03-29T08:33:00;4.17;;;1.67;;
9948;SDS011;5013;51.840;8.276;2024-03-29T08:35:29;2.80;;;1.77;;
9948;SDS011;5013;51.840;8.276;2024-03-29T08:37:55;3.33;;;1.60;;
9948;SDS011;5013;51.840;8.276;2024-03-29T08:40:20;5.60;;;1.83;;
9948;SDS011;5013;51.840;8.276;2024-03-29T08:42:47;3.17;;;1.60;;
9948;SDS011;5013;51.840;8.276;2024-03-29T08:45:12;2.60;;;2.07;;
9948;SDS011;5013;51.840;8.276;2024-03-29T08:47:38;1.67;;;1.57;;
9948;SDS011;5013;51.840;8.276;2024-03-29T08:50:04;2.47;;;1.50;;
9948;SDS011;5013;51.840;8.276;2024-03-29T08:52:30;1.93;;;1.30;;
9948;SDS011;5013;51.840;8.276;2024-03-29T08:54:56;3.37;;;1.30;;
9948;SDS011;5013;51.840;8.276;2024-03-29T08:57:21;3.63;;;1.93;;
9948;SDS011;5013;51.840;8.276;2024-03-29T08:59:47;2.87;;;1.30;;
9948;SDS011;5013;51.840;8.276;2024-03-29T09:02:13;3.37;;;1.47;;
9948;SDS011;5013;51.840;8.276;2024-03-29T09:04:38;1.20;;;1.10;;
9948;SDS011;5013;51.840;8.276;2024-03-29T09:07:04;2.17;;;1.40;;
9948;SDS011;5013;51.840;8.276;2024-03-29T09:09:31;1.73;;;1.33;;
9948;SDS011;5013;51.840;8.276;2024-03-29T09:11:57;2.17;;;1.40;;
9948;SDS011;5013;51.840;8.276;2024-03-29T09:14:32;1.30;;;1.20;;
9948;SDS011;5013;51.840;8.276;2024-03-29T09:16:57;1.67;;;1.53;;
9948;SDS011;5013;51.840;8.276;2024-03-29T09:19:23;1.90;;;1.23;;
9948;SDS011;5013;51.840;8.276;2024-03-29T09:21:49;1.63;;;1.53;;
9948;SDS011;5013;51.840;8.276;2024-03-29T09:24:15;3.17;;;1.30;;
9948;SDS011;5013;51.840;8.276;2024-03-29T09:26:42;1.60;;;1.43;;
9948;SDS011;5013;51.840;8.276;2024-03-29T09:29:08;3.43;;;1.83;;
9948;SDS011;5013;51.840;8.276;2024-03-29T09:31:34;2.47;;;2.30;;
9948;SDS011;5013;51.840;8.276;2024-03-29T09:34:00;2.03;;;1.30;;
9948;SDS011;5013;51.840;8.276;2024-03-29T09:36:26;2.30;;;1.07;;
9948;SDS011;5013;51.840;8.276;2024-03-29T09:38:51;2.00;;;1.40;;
9948;SDS011;5013;51.840;8.276;2024-03-29T09:41:18;1.20;;;1.20;;
9948;SDS011;5013;51.840;8.276;2024-03-29T09:43:45;1.50;;;1.47;;
9948;SDS011;5013;51.840;8.276;2024-03-29T09:46:14;1.23;;;1.10;;
9948;SDS011;5013;51.840;8.276;2024-03-29T09:48:41;1.50;;;1.10;;
9948;SDS011;5013;51.840;8.276;2024-03-29T09:51:08;1.40;;;1.00;;
9948;SDS011;5013;51.840;8.276;2024-03-29T09:53:35;1.13;;;1.03;;
9948;SDS011;5013;51.840;8.276;2024-03-29T09:56:05;1.13;;;1.10;;
9948;SDS011;5013;51.840;8.276;2024-03-29T09:58:35;1.03;;;1.03;;
9948;SDS011;5013;51.840;8.276;2024-03-29T10:01:02;1.60;;;1.50;;
9948;SDS011;5013;51.840;8.276;2024-03-29T10:03:29;2.77;;;1.00;;
9948;SDS011;5013;51.840;8.276;2024-03-29T10:05:59;1.43;;;0.90;;
9948;SDS011;5013;51.840;8.276;2024-03-29T10:08:26;1.23;;;1.13;;
9948;SDS011;5013;51.840;8.276;2024-03-29T10:10:52;2.07;;;1.10;;
9948;SDS011;5013;51.840;8.276;2024-03-29T10:13:21;4.33;;;1.30;;
9948;SDS011;5013;51.840;8.276;2024-03-29T10:15:50;1.40;;;1.13;;
9948;SDS011;5013;51.840;8.276;2024-03-29T10:18:18;1.13;;;1.00;;
9948;SDS011;5013;51.840;8.276;2024-03-29T10:20:45;2.03;;;1.50;;
9948;SDS011;5013;51.840;8.276;2024-03-29T10:23:11;2.27;;;1.50;;
9948;SDS011;5013;51.840;8.276;2024-03-29T10:25:37;1.43;;;1.10;;
9948;SDS011;5013;51.840;8.276;2024-03-29T10:28:02;1.77;;;1.40;;
9948;SDS011;5013;51.840;8.276;2024-03-29T10:30:29;1.80;;;1.23;;
9948;SDS011;5013;51.840;8.276;2024-03-29T10:32:55;2.03;;;1.30;;
9948;SDS011;5013;51.840;8.276;2024-03-29T10:35:22;0.90;;;0.90;;
9948;SDS011;5013;51.840;8.276;2024-03-29T10:37:50;1.13;;;1.10;;
9948;SDS011;5013;51.840;8.276;2024-03-29T10:40:18;0.90;;;0.90;;
9948;SDS011;5013;51.840;8.276;2024-03-29T10:42:47;2.13;;;0.90;;
9948;SDS011;5013;51.840;8.276;2024-03-29T10:45:14;1.03;;;1.03;;
9948;SDS011;5013;51.840;8.276;2024-03-29T10:47:41;1.30;;;1.00;;
9948;SDS011;5013;51.840;8.276;2024-03-29T10:50:09;1.00;;;1.00;;
9948;SDS011;5013;51.840;8.276;2024-03-29T10:52:38;1.10;;;1.10;;
9948;SDS011;5013;51.840;8.276;2024-03-29T10:55:07;0.90;;;0.90;;
9948;SDS011;5013;51.840;8.276;2024-03-29T10:57:34;2.90;;;1.10;;
9948;SDS011;5013;51.840;8.276;2024-03-29T11:02:49;1.43;;;1.43;;
9948;SDS011;5013;51.840;8.276;2024-03-29T11:05:28;2.90;;;1.20;;
9948;SDS011;5013;51.840;8.276;2024-03-29T11:07:56;1.17;;;1.17;;
9948;SDS011;5013;51.840;8.276;2024-03-29T11:10:28;3.60;;;1.17;;
9948;SDS011;5013;51.840;8.276;2024-03-29T11:13:15;1.77;;;0.90;;
9948;SDS011;5013;51.840;8.276;2024-03-29T11:15:57;1.20;;;1.20;;
9948;SDS011;5013;51.840;8.276;2024-03-29T11:18:25;4.53;;;0.90;;
9948;SDS011;5013;51.840;8.276;2024-03-29T11:20:55;0.97;;;0.87;;
9948;SDS011;5013;51.840;8.276;2024-03-29T11:23:22;2.30;;;1.37;;
9948;SDS011;5013;51.840;8.276;2024-03-29T11:25:51;1.00;;;1.00;;
9948;SDS011;5013;51.840;8.276;2024-03-29T11:28:32;1.47;;;1.00;;
9948;SDS011;5013;51.840;8.276;2024-03-29T11:31:03;0.80;;;0.80;;
9948;SDS011;5013;51.840;8.276;2024-03-29T11:38:39;1.07;;;0.93;;
9948;SDS011;5013;51.840;8.276;2024-03-29T11:41:12;0.93;;;0.90;;
9948;SDS011;5013;51.840;8.276;2024-03-29T11:43:39;0.90;;;0.90;;
9948;SDS011;5013;51.840;8.276;2024-03-29T11:46:08;1.00;;;0.83;;
9948;SDS011;5013;51.840;8.276;2024-03-29T11:48:36;0.80;;;0.80;;
9948;SDS011;5013;51.840;8.276;2024-03-29T11:51:03;1.07;;;0.90;;
9948;SDS011;5013;51.840;8.276;2024-03-29T11:53:30;2.10;;;1.10;;
9948;SDS011;5013;51.840;8.276;2024-03-29T11:55:59;0.90;;;0.90;;
9948;SDS011;5013;51.840;8.276;2024-03-29T11:58:27;0.90;;;0.90;;
9948;SDS011;5013;51.840;8.276;2024-03-29T12:00:54;2.97;;;1.00;;
9948;SDS011;5013;51.840;8.276;2024-03-29T12:03:22;0.93;;;0.87;;
9948;SDS011;5013;51.840;8.276;2024-03-29T12:05:50;1.50;;;1.00;;
9948;SDS011;5013;51.840;8.276;2024-03-29T12:08:19;1.03;;;0.90;;
9948;SDS011;5013;51.840;8.276;2024-03-29T12:10:46;2.60;;;2.40;;
9948;SDS011;5013;51.840;8.276;2024-03-29T12:13:13;2.23;;;1.10;;
9948;SDS011;5013;51.840;8.276;2024-03-29T12:15:40;1.20;;;1.10;;
9948;SDS011;5013;51.840;8.276;2024-03-29T12:18:06;0.90;;;0.90;;
9948;SDS011;5013;51.840;8.276;2024-03-29T12:20:32;0.90;;;0.90;;
9948;SDS011;5013;51.840;8.276;2024-03-29T12:23:02;1.73;;;1.00;;
9948;SDS011;5013;51.840;8.276;2024-03-29T12:25:28;2.30;;;0.90;;
9948;SDS011;5013;51.840;8.276;2024-03-29T12:27:55;1.17;;;1.10;;
9948;SDS011;5013;51.840;8.276;2024-03-29T12:30:35;0.90;;;0.90;;
9948;SDS011;5013;51.840;8.276;2024-03-29T12:33:02;1.07;;;1.00;;
9948;SDS011;5013;51.840;8.276;2024-03-29T12:35:28;0.97;;;0.90;;
9948;SDS011;5013;51.840;8.276;2024-03-29T12:37:57;1.00;;;0.90;;
9948;SDS011;5013;51.840;8.276;2024-03-29T12:40:24;1.23;;;1.03;;
9948;SDS011;5013;51.840;8.276;2024-03-29T12:42:51;1.37;;;1.10;;
9948;SDS011;5013;51.840;8.276;2024-03-29T12:45:17;3.60;;;1.07;;
9948;SDS011;5013;51.840;8.276;2024-03-29T12:47:47;1.10;;;1.00;;
9948;SDS011;5013;51.840;8.276;2024-03-29T12:50:30;1.30;;;1.20;;
9948;SDS011;5013;51.840;8.276;2024-03-29T12:52:58;3.87;;;1.37;;
9948;SDS011;5013;51.840;8.276;2024-03-29T12:55:30;1.57;;;1.50;;
9948;SDS011;5013;51.840;8.276;2024-03-29T12:57:59;1.90;;;1.80;;
9948;SDS011;5013;51.840;8.276;2024-03-29T13:00:25;1.60;;;1.50;;
9948;SDS011;5013;51.840;8.276;2024-03-29T13:02:52;1.73;;;1.30;;
9948;SDS011;5013;51.840;8.276;2024-03-29T13:05:18;1.07;;;1.00;;
9948;SDS011;5013;51.840;8.276;2024-03-29T13:07:43;2.10;;;1.07;;
9948;SDS011;5013;51.840;8.276;2024-03-29T13:10:09;2.00;;;1.00;;
9948;SDS011;5013;51.840;8.276;2024-03-29T13:12:41;1.13;;;0.93;;
9948;SDS011;5013;51.840;8.276;2024-03-29T13:15:26;1.27;;;1.13;;
9948;SDS011;5013;51.840;8.276;2024-03-29T13:17:53;1.67;;;1.00;;
9948;SDS011;5013;51.840;8.276;2024-03-29T13:20:20;0.93;;;0.90;;
9948;SDS011;5013;51.840;8.276;2024-03-29T13:22:47;3.03;;;0.90;;
9948;SDS011;5013;51.840;8.276;2024-03-29T13:25:17;0.97;;;0.97;;
9948;SDS011;5013;51.840;8.276;2024-03-29T13:27:45;0.90;;;0.90;;
9948;SDS011;5013;51.840;8.276;2024-03-29T13:30:21;1.13;;;1.13;;
9948;SDS011;5013;51.840;8.276;2024-03-29T13:32:48;1.03;;;1.00;;
9948;SDS011;5013;51.840;8.276;2024-03-29T13:35:13;1.07;;;1.07;;
9948;SDS011;5013;51.840;8.276;2024-03-29T13:37:40;1.10;;;1.10;;
9948;SDS011;5013;51.840;8.276;2024-03-29T13:40:17;1.53;;;1.30;;
9948;SDS011;5013;51.840;8.276;2024-03-29T13:42:44;1.00;;;1.00;;
9948;SDS011;5013;51.840;8.276;2024-03-29T13:45:10;1.27;;;1.17;;
9948;SDS011;5013;51.840;8.276;2024-03-29T13:47:39;1.53;;;1.30;;
9948;SDS011;5013;51.840;8.276;2024-03-29T13:50:06;2.30;;;1.40;;
9948;SDS011;5013;51.840;8.276;2024-03-29T13:52:33;2.13;;;1.00;;
9948;SDS011;5013;51.840;8.276;2024-03-29T13:54:59;0.83;;;0.83;;
9948;SDS011;5013;51.840;8.276;2024-03-29T13:57:25;1.10;;;0.90;;
9948;SDS011;5013;51.840;8.276;2024-03-29T13:59:50;3.20;;;1.20;;
9948;SDS011;5013;51.840;8.276;2024-03-29T14:02:17;3.37;;;1.17;;
9948;SDS011;5013;51.840;8.276;2024-03-29T14:04:44;1.20;;;1.10;;
9948;SDS011;5013;51.840;8.276;2024-03-29T14:07:11;3.43;;;1.30;;
9948;SDS011;5013;51.840;8.276;2024-03-29T14:09:38;1.27;;;1.03;;
9948;SDS011;5013;51.840;8.276;2024-03-29T14:12:08;1.13;;;1.13;;
9948;SDS011;5013;51.840;8.276;2024-03-29T14:14:34;0.97;;;0.97;;
9948;SDS011;5013;51.840;8.276;2024-03-29T14:17:01;2.57;;;1.00;;
9948;SDS011;5013;51.840;8.276;2024-03-29T14:19:29;1.10;;;1.10;;
9948;SDS011;5013;51.840;8.276;2024-03-29T14:21:55;1.77;;;0.90;;
9948;SDS011;5013;51.840;8.276;2024-03-29T14:24:21;1.00;;;1.00;;
9948;SDS011;5013;51.840;8.276;2024-03-29T14:26:49;0.97;;;0.97;;
9948;SDS011;5013;51.840;8.276;2024-03-29T14:29:15;1.00;;;1.00;;
9948;SDS011;5013;51.840;8.276;2024-03-29T14:31:43;1.13;;;1.03;;
9948;SDS011;5013;51.840;8.276;2024-03-29T14:34:09;1.40;;;0.93;;
9948;SDS011;5013;51.840;8.276;2024-03-29T14:36:35;0.87;;;0.87;;
9948;SDS011;5013;51.840;8.276;2024-03-29T14:39:01;0.83;;;0.83;;
9948;SDS011;5013;51.840;8.276;2024-03-29T14:41:27;1.10;;;1.00;;
9948;SDS011;5013;51.840;8.276;2024-03-29T14:43:53;1.00;;;1.00;;
9948;SDS011;5013;51.840;8.276;2024-03-29T14:46:20;0.93;;;0.93;;
9948;SDS011;5013;51.840;8.276;2024-03-29T14:48:46;0.90;;;0.83;;
9948;SDS011;5013;51.840;8.276;2024-03-29T14:51:12;1.20;;;1.10;;
9948;SDS011;5013;51.840;8.276;2024-03-29T14:53:38;0.80;;;0.80;;
9948;SDS011;5013;51.840;8.276;2024-03-29T14:56:04;0.80;;;0.80;;
9948;SDS011;5013;51.840;8.276;2024-03-29T14:58:29;1.70;;;1.00;;
9948;SDS011;5013;51.840;8.276;2024-03-29T15:00:55;2.10;;;0.90;;
9948;SDS011;5013;51.840;8.276;2024-03-29T15:03:24;1.00;;;1.00;;
9948;SDS011;5013;51.840;8.276;2024-03-29T15:05:53;1.47;;;0.97;;
9948;SDS011;5013;51.840;8.276;2024-03-29T15:08:19;0.90;;;0.90;;
9948;SDS011;5013;51.840;8.276;2024-03-29T15:10:44;0.90;;;0.90;;
9948;SDS011;5013;51.840;8.276;2024-03-29T15:13:10;1.43;;;1.30;;
9948;SDS011;5013;51.840;8.276;2024-03-29T15:15:36;1.10;;;1.00;;
9948;SDS011;5013;51.840;8.276;2024-03-29T15:18:03;1.07;;;1.07;;
9948;SDS011;5013;51.840;8.276;2024-03-29T15:20:29;1.07;;;0.97;;
9948;SDS011;5013;51.840;8.276;2024-03-29T15:22:57;1.03;;;1.00;;
9948;SDS011;5013;51.840;8.276;2024-03-29T15:25:23;1.27;;;1.20;;
9948;SDS011;5013;51.840;8.276;2024-03-29T15:27:49;1.47;;;1.30;;